createdAt,value
2023-03-25T00:01:44.533Z,29.80
2023-03-25T00:04:50.983Z,29.80
2023-03-25T00:07:53.331Z,29.80
2023-03-25T00:10:58.167Z,30.00
2023-03-25T00:14:00.479Z,29.90
2023-03-25T00:17:02.850Z,30.00
2023-03-25T00:20:08.981Z,30.00
2023-03-25T00:23:11.758Z,30.00
2023-03-25T00:26:13.917Z,29.90
2023-03-25T00:29:16.699Z,29.90
2023-03-25T00:32:20.970Z,29.80
2023-03-25T00:35:24.142Z,29.90
2023-03-25T00:38:35.498Z,29.80
2023-03-25T00:41:37.887Z,29.80
2023-03-25T00:44:40.895Z,29.80
2023-03-25T00:47:43.776Z,29.90
2023-03-25T00:50:46.224Z,29.90
2023-03-25T00:53:56.913Z,29.90
2023-03-25T00:56:59.001Z,29.90
2023-03-25T01:00:01.391Z,29.70
2023-03-25T01:03:04.391Z,29.80
2023-03-25T01:06:28.949Z,29.70
2023-03-25T01:09:31.675Z,29.80
2023-03-25T01:12:34.030Z,29.70
2023-03-25T01:15:36.131Z,29.70
2023-03-25T01:18:38.817Z,29.80
2023-03-25T01:21:41.797Z,29.70
2023-03-25T01:24:44.170Z,29.70
2023-03-25T01:27:46.222Z,29.50
2023-03-25T01:30:48.653Z,29.60
2023-03-25T01:33:50.757Z,29.40
2023-03-25T01:36:55.665Z,29.30
2023-03-25T01:39:57.848Z,29.30
2023-03-25T01:43:00.335Z,29.40
2023-03-25T01:46:02.621Z,29.40
2023-03-25T01:49:08.962Z,29.30
2023-03-25T01:52:24.110Z,29.20
2023-03-25T01:55:27.543Z,29.00
2023-03-25T01:58:31.614Z,29.00
2023-03-25T02:01:34.311Z,29.00
2023-03-25T02:05:01.822Z,29.20
2023-03-25T02:08:05.780Z,29.20
2023-03-25T02:11:11.351Z,29.20
2023-03-25T02:14:18.785Z,29.00
2023-03-25T02:17:45.416Z,28.90
2023-03-25T02:21:18.096Z,29.00
2023-03-25T02:24:57.931Z,29.20
2023-03-25T02:28:25.596Z,29.20
2023-03-25T02:31:55.325Z,29.20
2023-03-25T02:35:16.275Z,29.10
2023-03-25T02:38:43.597Z,29.20
2023-03-25T02:42:20.523Z,29.20
2023-03-25T02:45:29.819Z,29.20
2023-03-25T02:49:07.243Z,29.20
2023-03-25T02:52:20.791Z,28.70
2023-03-25T02:55:25.522Z,28.60
2023-03-25T02:58:29.968Z,28.90
2023-03-25T03:01:34.910Z,29.10
2023-03-25T03:04:53.242Z,29.30
2023-03-25T03:08:08.958Z,29.30
2023-03-25T03:11:17.182Z,29.40
2023-03-25T03:14:28.140Z,29.40
2023-03-25T03:17:56.249Z,29.40
2023-03-25T03:21:10.061Z,29.20
2023-03-25T03:24:33.187Z,29.20
2023-03-25T03:27:45.670Z,29.30
2023-03-25T03:31:06.865Z,29.30
2023-03-25T03:34:22.714Z,29.10
2023-03-25T03:37:32.469Z,29.20
2023-03-25T03:40:37.526Z,29.20
2023-03-25T03:43:51.005Z,29.20
2023-03-25T03:47:08.924Z,29.10
2023-03-25T03:50:25.454Z,29.10
2023-03-25T03:53:33.341Z,29.00
2023-03-25T03:56:48.482Z,29.10
2023-03-25T04:00:26.086Z,29.20
2023-03-25T04:03:50.760Z,29.30
2023-03-25T04:06:58.078Z,29.30
2023-03-25T04:10:15.051Z,29.40
2023-03-25T04:13:18.954Z,29.20
2023-03-25T04:16:21.824Z,29.00
2023-03-25T04:19:25.759Z,28.80
2023-03-25T04:22:27.946Z,28.70
2023-03-25T04:25:32.377Z,28.80
2023-03-25T04:28:36.759Z,28.80
2023-03-25T04:31:46.741Z,28.90
2023-03-25T04:34:48.840Z,28.90
2023-03-25T04:37:54.500Z,28.90
2023-03-25T04:40:56.642Z,28.60
2023-03-25T04:43:59.316Z,28.90
2023-03-25T04:47:02.349Z,28.80
2023-03-25T04:50:04.996Z,28.80
2023-03-25T04:53:09.835Z,29.00
2023-03-25T04:56:21.159Z,28.90
2023-03-25T04:59:24.318Z,29.10
2023-03-25T05:02:27.613Z,28.90
2023-03-25T05:05:29.663Z,29.20
2023-03-25T05:08:32.474Z,29.20
2023-03-25T05:11:37.151Z,29.30
2023-03-25T05:14:39.600Z,29.10
2023-03-25T05:17:41.748Z,29.20
2023-03-25T05:20:46.985Z,28.90
2023-03-25T05:23:49.109Z,29.30
2023-03-25T05:26:51.427Z,29.30
2023-03-25T05:29:54.036Z,29.40
2023-03-25T05:32:57.012Z,29.20
2023-03-25T05:35:59.242Z,29.40
2023-03-25T05:39:01.978Z,29.60
2023-03-25T05:42:04.111Z,29.70
2023-03-25T05:45:06.968Z,29.70
2023-03-25T05:48:09.289Z,29.60
2023-03-25T05:51:25.576Z,30.00
2023-03-25T05:54:28.524Z,29.60
2023-03-25T05:57:31.314Z,30.00
2023-03-25T06:00:34.983Z,30.30
2023-03-25T06:03:39.099Z,30.50
2023-03-25T06:06:41.431Z,30.50
2023-03-25T06:09:46.623Z,30.40
2023-03-25T06:12:50.049Z,30.10
2023-03-25T06:15:56.346Z,30.00
2023-03-25T06:19:01.334Z,29.90
2023-03-25T06:22:03.778Z,30.30
2023-03-25T06:25:07.380Z,30.00
2023-03-25T06:28:09.761Z,30.20
2023-03-25T06:31:20.573Z,30.40
2023-03-25T06:34:23.713Z,30.50
2023-03-25T06:37:26.496Z,30.40
2023-03-25T06:40:28.790Z,30.00
2023-03-25T06:43:30.844Z,29.60
2023-03-25T06:46:34.534Z,29.60
2023-03-25T06:49:36.567Z,29.90
2023-03-25T06:52:38.837Z,30.30
2023-03-25T06:55:41.482Z,30.40
2023-03-25T06:58:44.144Z,30.30
2023-03-25T07:01:46.298Z,30.30
2023-03-25T07:04:48.734Z,30.90
2023-03-25T07:07:50.834Z,31.10
2023-03-25T07:10:53.181Z,31.40
2023-03-25T07:13:55.773Z,31.20
2023-03-25T07:16:58.119Z,31.60
2023-03-25T07:20:00.365Z,31.80
2023-03-25T07:23:02.645Z,31.80
2023-03-25T07:26:04.814Z,32.10
2023-03-25T07:29:07.266Z,32.40
2023-03-25T07:32:09.626Z,32.70
2023-03-25T07:35:12.155Z,32.40
2023-03-25T07:38:14.378Z,32.50
2023-03-25T07:41:16.692Z,32.60
2023-03-25T07:44:22.150Z,32.50
2023-03-25T07:47:24.530Z,32.60
2023-03-25T07:50:26.816Z,32.30
2023-03-25T07:53:29.345Z,32.40
2023-03-25T07:56:31.467Z,32.90
2023-03-25T07:59:33.760Z,33.10
2023-03-25T08:02:35.830Z,33.00
2023-03-25T08:05:38.418Z,32.80
2023-03-25T08:08:43.826Z,33.10
2023-03-25T08:11:47.504Z,32.90
2023-03-25T08:14:49.496Z,33.20
2023-03-25T08:17:53.371Z,33.30
2023-03-25T08:20:55.683Z,33.40
2023-03-25T08:23:58.554Z,33.10
2023-03-25T08:27:00.743Z,32.90
2023-03-25T08:30:17.647Z,32.50
2023-03-25T08:33:19.614Z,32.10
2023-03-25T08:36:23.260Z,32.80
2023-03-25T08:39:30.018Z,33.00
2023-03-25T08:42:32.300Z,33.10
2023-03-25T08:45:36.524Z,33.30
2023-03-25T08:48:38.967Z,33.20
2023-03-25T08:51:40.970Z,33.10
2023-03-25T08:54:43.272Z,33.10
2023-03-25T08:57:45.437Z,33.50
2023-03-25T09:00:48.460Z,33.70
2023-03-25T09:03:50.563Z,33.50
2023-03-25T09:07:10.788Z,33.60
2023-03-25T09:10:14.768Z,33.90
2023-03-25T09:13:17.089Z,33.80
2023-03-25T09:16:19.116Z,34.00
2023-03-25T09:19:21.553Z,34.30
2023-03-25T09:22:23.610Z,34.80
2023-03-25T09:25:25.914Z,34.90
2023-03-25T09:28:28.364Z,35.10
2023-03-25T09:31:30.712Z,35.00
2023-03-25T09:34:32.794Z,34.30
2023-03-25T09:37:35.203Z,34.40
2023-03-25T09:40:37.283Z,34.40
2023-03-25T09:44:13.947Z,34.60
2023-03-25T09:47:16.934Z,34.70
2023-03-25T09:50:20.850Z,34.60
2023-03-25T09:53:44.533Z,34.40
2023-03-25T09:56:48.322Z,34.40
2023-03-25T09:59:52.399Z,34.60
2023-03-25T10:03:00.673Z,34.10
2023-03-25T10:06:19.767Z,34.40
2023-03-25T10:09:40.053Z,34.50
2023-03-25T10:12:54.691Z,34.30
2023-03-25T10:16:11.510Z,34.40
2023-03-25T10:19:16.648Z,34.20
2023-03-25T10:22:26.563Z,34.50
2023-03-25T10:25:32.263Z,34.30
2023-03-25T10:28:40.513Z,34.10
2023-03-25T10:31:54.641Z,34.60
2023-03-25T10:34:58.967Z,34.70
2023-03-25T10:38:14.455Z,34.20
2023-03-25T10:41:27.851Z,34.00
2023-03-25T10:44:31.091Z,34.80
2023-03-25T10:47:37.774Z,35.50
2023-03-25T10:50:41.976Z,35.80
2023-03-25T10:53:49.691Z,36.10
2023-03-25T10:56:58.468Z,35.90
2023-03-25T11:00:20.961Z,35.60
2023-03-25T11:03:30.703Z,35.60
2023-03-25T11:06:42.206Z,35.50
2023-03-25T11:09:44.264Z,35.20
2023-03-25T11:12:49.179Z,34.90
2023-03-25T11:15:54.298Z,34.50
2023-03-25T11:19:00.845Z,34.40
2023-03-25T11:22:34.904Z,34.30
2023-03-25T11:25:41.819Z,33.80
2023-03-25T11:28:56.030Z,33.40
2023-03-25T11:32:16.422Z,32.60
2023-03-25T11:35:24.541Z,31.50
2023-03-25T11:38:32.543Z,31.80
2023-03-25T11:41:37.181Z,31.70
2023-03-25T11:44:39.841Z,31.80
2023-03-25T11:47:42.241Z,31.80
2023-03-25T11:50:52.778Z,31.90
2023-03-25T11:54:05.998Z,32.00
2023-03-25T11:57:17.206Z,32.20
2023-03-25T12:00:25.149Z,32.70
2023-03-25T12:03:28.889Z,33.20
2023-03-25T12:06:30.988Z,33.40
2023-03-25T12:09:33.533Z,33.50
2023-03-25T12:13:01.677Z,33.60
2023-03-25T12:16:25.997Z,33.70
2023-03-25T12:19:43.096Z,33.20
2023-03-25T12:22:53.475Z,32.60
2023-03-25T12:26:06.887Z,32.40
2023-03-25T12:29:27.304Z,32.50
2023-03-25T12:32:41.278Z,32.90
2023-03-25T12:35:58.738Z,33.20
2023-03-25T12:39:32.257Z,32.90
2023-03-25T12:43:05.036Z,33.20
2023-03-25T12:46:14.419Z,33.20
2023-03-25T12:49:50.918Z,32.60
2023-03-25T12:53:04.338Z,32.90
2023-03-25T12:56:44.841Z,33.10
2023-03-25T13:00:03.844Z,32.80
2023-03-25T13:03:30.247Z,32.60
2023-03-25T13:06:38.058Z,32.90
2023-03-25T13:09:54.911Z,33.20
2023-03-25T13:12:59.887Z,33.10
2023-03-25T13:16:09.358Z,33.50
2023-03-25T13:19:20.037Z,33.90
2023-03-25T13:22:27.298Z,33.50
2023-03-25T13:25:38.556Z,33.50
2023-03-25T13:28:49.375Z,33.50
2023-03-25T13:31:53.483Z,34.00
2023-03-25T13:35:07.217Z,34.20
2023-03-25T13:38:37.133Z,33.40
2023-03-25T13:41:44.344Z,33.30
2023-03-25T13:44:50.650Z,33.30
2023-03-25T13:48:09.421Z,33.30
2023-03-25T13:51:12.900Z,33.20
2023-03-25T13:54:17.985Z,33.20
2023-03-25T13:57:53.641Z,33.40
2023-03-25T14:00:56.203Z,33.40
2023-03-25T14:04:35.330Z,33.60
2023-03-25T14:07:48.299Z,33.20
2023-03-25T14:11:08.449Z,33.30
2023-03-25T14:14:15.586Z,33.30
2023-03-25T14:17:19.195Z,33.50
2023-03-25T14:20:27.380Z,33.40
2023-03-25T14:23:32.223Z,33.40
2023-03-25T14:26:37.677Z,33.40
2023-03-25T14:29:46.530Z,33.60
2023-03-25T14:32:49.799Z,33.40
2023-03-25T14:35:57.174Z,32.70
2023-03-25T14:38:59.586Z,32.50
2023-03-25T14:42:07.473Z,32.10
2023-03-25T14:45:32.779Z,32.30
2023-03-25T14:48:37.896Z,32.30
2023-03-25T14:51:41.168Z,32.50
2023-03-25T14:54:43.781Z,32.60
2023-03-25T14:57:48.452Z,32.70
2023-03-25T15:00:55.829Z,32.60
2023-03-25T15:04:28.238Z,32.70
2023-03-25T15:07:48.371Z,32.60
2023-03-25T15:11:10.398Z,32.50
2023-03-25T15:14:24.917Z,32.60
2023-03-25T15:17:44.706Z,32.70
2023-03-25T15:20:46.879Z,32.70
2023-03-25T15:23:54.991Z,32.60
2023-03-25T15:27:01.491Z,32.50
2023-03-25T15:30:37.038Z,32.70
2023-03-25T15:34:09.688Z,32.60
2023-03-25T15:37:46.557Z,32.70
2023-03-25T15:41:14.035Z,32.70
2023-03-25T15:44:49.546Z,32.70
2023-03-25T15:48:08.086Z,32.60
2023-03-25T15:51:27.357Z,32.50
2023-03-25T15:55:02.217Z,32.60
2023-03-25T15:58:11.561Z,32.10
2023-03-25T16:01:30.227Z,32.00
2023-03-25T16:04:40.656Z,31.60
2023-03-25T16:07:43.869Z,31.70
2023-03-25T16:10:46.566Z,31.80
2023-03-25T16:14:11.297Z,31.40
2023-03-25T16:17:14.747Z,31.60
2023-03-25T16:20:22.026Z,31.50
2023-03-25T16:23:27.158Z,31.70
2023-03-25T16:26:48.041Z,30.90
2023-03-25T16:29:53.814Z,31.20
2023-03-25T16:33:29.206Z,31.10
2023-03-25T16:36:31.815Z,31.20
2023-03-25T16:39:36.965Z,31.30
2023-03-25T16:42:39.235Z,31.30
2023-03-25T16:45:41.606Z,31.10
2023-03-25T16:48:51.353Z,30.90
2023-03-25T16:51:54.975Z,31.00
2023-03-25T16:55:02.738Z,31.10
2023-03-25T16:58:16.270Z,31.00
2023-03-25T17:01:21.800Z,30.90
2023-03-25T17:04:42.551Z,31.00
2023-03-25T17:07:50.152Z,31.30
2023-03-25T17:10:57.284Z,31.60
2023-03-25T17:14:14.984Z,31.70
2023-03-25T17:17:49.630Z,31.50
2023-03-25T17:20:58.092Z,31.80
2023-03-25T17:24:22.062Z,31.70
2023-03-25T17:27:34.392Z,31.60
2023-03-25T17:30:45.288Z,31.60
2023-03-25T17:34:10.978Z,31.60
2023-03-25T17:37:13.891Z,31.70
2023-03-25T17:40:28.656Z,31.50
2023-03-25T17:43:34.059Z,31.50
2023-03-25T17:46:36.535Z,31.20
2023-03-25T17:49:38.567Z,31.50
2023-03-25T17:52:40.901Z,31.40
2023-03-25T17:55:42.968Z,31.10
2023-03-25T17:58:45.601Z,31.00
2023-03-25T18:01:50.049Z,31.20
2023-03-25T18:04:52.684Z,31.10
2023-03-25T18:07:56.420Z,31.10
2023-03-25T18:10:59.048Z,31.10
2023-03-25T18:14:01.241Z,31.10
2023-03-25T18:17:04.594Z,31.20
2023-03-25T18:20:19.372Z,31.10
2023-03-25T18:23:22.060Z,31.10
2023-03-25T18:26:24.108Z,31.10
2023-03-25T18:29:28.299Z,31.10
2023-03-25T18:32:30.292Z,31.10
2023-03-25T18:35:32.749Z,31.20
2023-03-25T18:38:34.758Z,31.20
2023-03-25T18:41:37.088Z,31.20
2023-03-25T18:44:39.132Z,31.30
2023-03-25T18:47:41.465Z,31.20
2023-03-25T18:50:50.363Z,31.10
2023-03-25T18:53:52.776Z,31.10
2023-03-25T18:56:54.933Z,31.10
2023-03-25T18:59:57.252Z,31.20
2023-03-25T19:02:59.288Z,31.10
2023-03-25T19:06:04.303Z,31.30
2023-03-25T19:09:09.317Z,31.20
2023-03-25T19:12:11.722Z,30.90
2023-03-25T19:15:16.024Z,30.70
2023-03-25T19:18:26.160Z,30.70
2023-03-25T19:21:28.173Z,30.60
2023-03-25T19:24:30.652Z,30.70
2023-03-25T19:27:32.689Z,30.80
2023-03-25T19:30:35.711Z,30.70
2023-03-25T19:33:38.037Z,30.60
2023-03-25T19:36:40.355Z,30.50
2023-03-25T19:39:42.724Z,30.00
2023-03-25T19:42:47.883Z,29.70
2023-03-25T19:45:50.003Z,29.70
2023-03-25T19:48:53.574Z,29.70
2023-03-25T19:51:55.734Z,29.80
2023-03-25T19:54:58.145Z,29.80
2023-03-25T19:58:00.264Z,29.80
2023-03-25T20:01:02.583Z,29.70
2023-03-25T20:04:04.793Z,29.70
2023-03-25T20:07:07.067Z,29.60
2023-03-25T20:10:20.107Z,29.60
2023-03-25T20:13:22.869Z,29.50
2023-03-25T20:16:25.158Z,28.80
2023-03-25T20:19:27.844Z,28.90
2023-03-25T20:22:29.872Z,28.70
2023-03-25T20:25:32.160Z,28.70
2023-03-25T20:28:34.219Z,28.60
2023-03-25T20:31:36.578Z,28.50
2023-03-25T20:34:38.630Z,28.40
2023-03-25T20:37:42.634Z,28.30
2023-03-25T20:40:45.322Z,28.70
2023-03-25T20:43:47.920Z,28.90
2023-03-25T20:46:50.279Z,29.00
2023-03-25T20:49:52.647Z,28.60
2023-03-25T20:52:55.646Z,28.50
2023-03-25T20:56:00.153Z,28.60
2023-03-25T20:59:02.422Z,28.40
2023-03-25T21:02:05.180Z,28.50
2023-03-25T21:05:07.814Z,27.50
2023-03-25T21:08:11.252Z,27.90
2023-03-25T21:11:15.262Z,27.70
2023-03-25T21:14:18.792Z,27.90
2023-03-25T21:17:21.595Z,28.00
2023-03-25T21:20:27.090Z,28.20
2023-03-25T21:23:30.854Z,28.40
2023-03-25T21:26:34.391Z,28.80
2023-03-25T21:29:37.209Z,29.10
2023-03-25T21:32:39.842Z,29.30
2023-03-25T21:35:53.877Z,29.10
2023-03-25T21:39:01.737Z,29.50
2023-03-25T21:42:09.862Z,29.50
2023-03-25T21:45:16.555Z,29.00
2023-03-25T21:48:19.568Z,29.30
2023-03-25T21:51:21.957Z,29.30
2023-03-25T21:54:24.657Z,29.40
2023-03-25T21:57:27.336Z,29.00
2023-03-25T22:00:30.029Z,28.90
2023-03-25T22:03:37.148Z,28.80
2023-03-25T22:06:39.426Z,29.00
2023-03-25T22:09:41.787Z,29.40
2023-03-25T22:12:43.766Z,29.40
2023-03-25T22:15:46.159Z,29.00
2023-03-25T22:18:49.128Z,29.20
2023-03-25T22:21:51.438Z,29.00
2023-03-25T22:24:53.503Z,29.00
2023-03-25T22:27:55.902Z,29.10
2023-03-25T22:30:58.155Z,29.00
2023-03-25T22:34:10.684Z,28.70
2023-03-25T22:37:12.691Z,28.40
2023-03-25T22:40:15.033Z,28.70
2023-03-25T22:43:16.981Z,28.70
2023-03-25T22:46:19.981Z,28.80
2023-03-25T22:49:22.575Z,29.10
2023-03-25T22:52:24.903Z,29.00
2023-03-25T22:55:26.879Z,28.60
2023-03-25T22:58:30.951Z,28.30
2023-03-25T23:01:33.929Z,28.80
2023-03-25T23:04:36.374Z,29.20
2023-03-25T23:07:38.401Z,28.60
2023-03-25T23:10:44.305Z,28.60
2023-03-25T23:13:50.365Z,28.00
2023-03-25T23:16:52.686Z,28.10
2023-03-25T23:19:54.997Z,28.60
2023-03-25T23:22:58.166Z,29.00
2023-03-25T23:26:08.265Z,29.00
2023-03-25T23:29:12.666Z,29.20
2023-03-25T23:32:15.275Z,29.30
2023-03-25T23:35:18.940Z,29.40
2023-03-25T23:38:21.888Z,29.60
2023-03-25T23:41:24.219Z,29.50
2023-03-25T23:44:26.468Z,29.70
2023-03-25T23:47:28.795Z,29.30
2023-03-25T23:50:31.499Z,29.50
2023-03-25T23:53:36.650Z,29.50
2023-03-25T23:56:39.575Z,29.60
2023-03-25T23:59:41.971Z,29.60
